sensor_id;sensor_type;location;lat;lon;timestamp;temperature;humidity
18225;DHT22;9237;48.590;8.854;2023-01-05T00:01:24;9.00;99.90
18225;DHT22;9237;48.590;8.854;2023-01-05T00:03:51;9.00;99.90
18225;DHT22;9237;48.590;8.854;2023-01-05T00:06:18;9.00;99.90
18225;DHT22;9237;48.590;8.854;2023-01-05T00:08:46;9.00;99.90
18225;DHT22;9237;48.590;8.854;2023-01-05T00:11:15;9.00;99.90
18225;DHT22;9237;48.590;8.854;2023-01-05T00:14:00;9.00;99.90
18225;DHT22;9237;48.590;8.854;2023-01-05T00:16:45;9.00;99.90
18225;DHT22;9237;48.590;8.854;2023-01-05T00:19:29;9.00;99.90
18225;DHT22;9237;48.590;8.854;2023-01-05T00:22:15;9.00;99.90
18225;DHT22;9237;48.590;8.854;2023-01-05T00:25:02;9.00;99.90
18225;DHT22;9237;48.590;8.854;2023-01-05T00:27:29;9.00;99.90
18225;DHT22;9237;48.590;8.854;2023-01-05T00:29:56;9.00;99.90
18225;DHT22;9237;48.590;8.854;2023-01-05T00:32:24;9.00;99.90
18225;DHT22;9237;48.590;8.854;2023-01-05T00:34:53;9.00;99.90
18225;DHT22;9237;48.590;8.854;2023-01-05T00:37:21;8.90;99.90
18225;DHT22;9237;48.590;8.854;2023-01-05T00:39:48;8.90;99.90
18225;DHT22;9237;48.590;8.854;2023-01-05T00:42:16;8.90;99.90
18225;DHT22;9237;48.590;8.854;2023-01-05T00:44:43;8.90;99.90
18225;DHT22;9237;48.590;8.854;2023-01-05T00:47:10;8.90;99.90
18225;DHT22;9237;48.590;8.854;2023-01-05T00:49:37;8.90;99.90
18225;DHT22;9237;48.590;8.854;2023-01-05T00:52:04;8.90;99.90
18225;DHT22;9237;48.590;8.854;2023-01-05T00:54:31;8.90;99.90
18225;DHT22;9237;48.590;8.854;2023-01-05T00:56:58;8.90;99.90
18225;DHT22;9237;48.590;8.854;2023-01-05T00:59:27;8.90;99.90
18225;DHT22;9237;48.590;8.854;2023-01-05T01:01:53;8.90;99.90
18225;DHT22;9237;48.590;8.854;2023-01-05T01:04:21;8.90;99.90
18225;DHT22;9237;48.590;8.854;2023-01-05T01:06:47;8.90;99.90
18225;DHT22;9237;48.590;8.854;2023-01-05T01:09:14;8.90;99.90
18225;DHT22;9237;48.590;8.854;2023-01-05T01:11:41;8.90;99.90
18225;DHT22;9237;48.590;8.854;2023-01-05T01:14:10;8.90;99.90
18225;DHT22;9237;48.590;8.854;2023-01-05T01:16:39;8.90;99.90
18225;DHT22;9237;48.590;8.854;2023-01-05T01:19:06;8.90;99.90
18225;DHT22;9237;48.590;8.854;2023-01-05T01:21:33;8.90;99.90
18225;DHT22;9237;48.590;8.854;2023-01-05T01:24:00;8.90;99.90
18225;DHT22;9237;48.590;8.854;2023-01-05T01:26:27;8.90;99.90
18225;DHT22;9237;48.590;8.854;2023-01-05T01:28:54;8.90;99.90
18225;DHT22;9237;48.590;8.854;2023-01-05T01:31:20;8.90;99.90
18225;DHT22;9237;48.590;8.854;2023-01-05T01:33:49;8.90;99.90
18225;DHT22;9237;48.590;8.854;2023-01-05T01:36:16;8.90;99.90
18225;DHT22;9237;48.590;8.854;2023-01-05T01:38:42;8.90;99.90
18225;DHT22;9237;48.590;8.854;2023-01-05T01:41:10;8.90;99.90
18225;DHT22;9237;48.590;8.854;2023-01-05T01:43:44;8.90;99.90
18225;DHT22;9237;48.590;8.854;2023-01-05T01:46:12;8.90;99.90
18225;DHT22;9237;48.590;8.854;2023-01-05T01:48:41;8.90;99.90
18225;DHT22;9237;48.590;8.854;2023-01-05T01:51:13;8.90;99.90
18225;DHT22;9237;48.590;8.854;2023-01-05T01:53:43;8.90;99.90
18225;DHT22;9237;48.590;8.854;2023-01-05T01:56:14;8.90;99.90
18225;DHT22;9237;48.590;8.854;2023-01-05T01:58:41;8.90;99.90
18225;DHT22;9237;48.590;8.854;2023-01-05T02:01:08;8.90;99.90
18225;DHT22;9237;48.590;8.854;2023-01-05T02:03:36;8.90;99.90
18225;DHT22;9237;48.590;8.854;2023-01-05T02:06:04;8.90;99.90
18225;DHT22;9237;48.590;8.854;2023-01-05T02:08:32;8.90;99.90
18225;DHT22;9237;48.590;8.854;2023-01-05T02:11:16;8.90;99.90
18225;DHT22;9237;48.590;8.854;2023-01-05T02:13:55;8.90;99.90
18225;DHT22;9237;48.590;8.854;2023-01-05T02:16:30;8.90;99.90
18225;DHT22;9237;48.590;8.854;2023-01-05T02:19:22;8.90;99.90
18225;DHT22;9237;48.590;8.854;2023-01-05T02:22:02;8.90;99.90
18225;DHT22;9237;48.590;8.854;2023-01-05T02:24:43;8.90;99.90
18225;DHT22;9237;48.590;8.854;2023-01-05T02:27:29;8.90;99.90
18225;DHT22;9237;48.590;8.854;2023-01-05T02:33:16;8.90;99.90
18225;DHT22;9237;48.590;8.854;2023-01-05T02:35:50;8.90;99.90
18225;DHT22;9237;48.590;8.854;2023-01-05T02:38:24;8.90;99.90
18225;DHT22;9237;48.590;8.854;2023-01-05T02:40:56;8.90;99.90
18225;DHT22;9237;48.590;8.854;2023-01-05T02:43:26;8.90;99.90
18225;DHT22;9237;48.590;8.854;2023-01-05T02:45:54;9.00;99.90
18225;DHT22;9237;48.590;8.854;2023-01-05T02:48:22;9.00;99.90
18225;DHT22;9237;48.590;8.854;2023-01-05T02:50:52;9.00;99.90
18225;DHT22;9237;48.590;8.854;2023-01-05T02:53:27;9.00;99.90
18225;DHT22;9237;48.590;8.854;2023-01-05T02:56:00;9.10;99.90
18225;DHT22;9237;48.590;8.854;2023-01-05T02:58:31;9.10;99.90
18225;DHT22;9237;48.590;8.854;2023-01-05T03:01:01;9.10;99.90
18225;DHT22;9237;48.590;8.854;2023-01-05T03:03:33;9.10;99.90
18225;DHT22;9237;48.590;8.854;2023-01-05T03:06:06;9.10;99.90
18225;DHT22;9237;48.590;8.854;2023-01-05T03:08:39;9.10;99.90
18225;DHT22;9237;48.590;8.854;2023-01-05T03:11:10;9.20;99.90
18225;DHT22;9237;48.590;8.854;2023-01-05T03:13:57;9.10;99.90
18225;DHT22;9237;48.590;8.854;2023-01-05T03:16:28;9.20;99.90
18225;DHT22;9237;48.590;8.854;2023-01-05T03:18:58;9.20;99.90
18225;DHT22;9237;48.590;8.854;2023-01-05T03:21:44;9.20;99.90
18225;DHT22;9237;48.590;8.854;2023-01-05T03:24:30;9.40;99.90
18225;DHT22;9237;48.590;8.854;2023-01-05T03:27:14;9.50;99.90
18225;DHT22;9237;48.590;8.854;2023-01-05T03:29:59;9.60;99.90
18225;DHT22;9237;48.590;8.854;2023-01-05T03:32:48;9.70;99.90
18225;DHT22;9237;48.590;8.854;2023-01-05T03:35:40;9.80;99.90
18225;DHT22;9237;48.590;8.854;2023-01-05T03:38:12;9.90;99.90
18225;DHT22;9237;48.590;8.854;2023-01-05T03:40:40;9.90;99.90
18225;DHT22;9237;48.590;8.854;2023-01-05T03:43:08;9.90;99.90
18225;DHT22;9237;48.590;8.854;2023-01-05T03:45:39;9.90;99.90
18225;DHT22;9237;48.590;8.854;2023-01-05T03:48:06;10.00;99.90
18225;DHT22;9237;48.590;8.854;2023-01-05T03:50:35;10.00;99.90
18225;DHT22;9237;48.590;8.854;2023-01-05T03:53:03;10.10;99.90
18225;DHT22;9237;48.590;8.854;2023-01-05T03:55:29;10.00;99.90
18225;DHT22;9237;48.590;8.854;2023-01-05T03:57:56;10.00;99.90
18225;DHT22;9237;48.590;8.854;2023-01-05T04:00:23;9.90;99.90
18225;DHT22;9237;48.590;8.854;2023-01-05T04:02:50;9.90;99.90
18225;DHT22;9237;48.590;8.854;2023-01-05T04:05:17;9.90;99.90
18225;DHT22;9237;48.590;8.854;2023-01-05T04:07:45;9.90;99.90
18225;DHT22;9237;48.590;8.854;2023-01-05T04:10:12;9.80;99.90
18225;DHT22;9237;48.590;8.854;2023-01-05T04:12:39;9.80;99.90
18225;DHT22;9237;48.590;8.854;2023-01-05T04:15:06;9.80;99.90
18225;DHT22;9237;48.590;8.854;2023-01-05T04:17:33;9.70;99.90
18225;DHT22;9237;48.590;8.854;2023-01-05T04:20:00;9.70;99.90
18225;DHT22;9237;48.590;8.854;2023-01-05T04:22:28;9.70;99.90
18225;DHT22;9237;48.590;8.854;2023-01-05T04:24:57;9.70;99.90
18225;DHT22;9237;48.590;8.854;2023-01-05T04:27:23;9.70;99.90
18225;DHT22;9237;48.590;8.854;2023-01-05T04:29:50;9.70;99.90
18225;DHT22;9237;48.590;8.854;2023-01-05T04:32:17;9.70;99.90
18225;DHT22;9237;48.590;8.854;2023-01-05T04:34:44;9.70;99.90
18225;DHT22;9237;48.590;8.854;2023-01-05T04:37:11;9.70;99.90
18225;DHT22;9237;48.590;8.854;2023-01-05T04:39:37;9.70;99.90
18225;DHT22;9237;48.590;8.854;2023-01-05T04:42:06;9.70;99.90
18225;DHT22;9237;48.590;8.854;2023-01-05T04:44:32;9.70;99.90
18225;DHT22;9237;48.590;8.854;2023-01-05T04:46:59;9.70;99.90
18225;DHT22;9237;48.590;8.854;2023-01-05T04:49:26;9.70;99.90
18225;DHT22;9237;48.590;8.854;2023-01-05T04:51:53;9.70;99.90
18225;DHT22;9237;48.590;8.854;2023-01-05T04:54:19;9.80;99.90
18225;DHT22;9237;48.590;8.854;2023-01-05T04:56:46;9.80;99.90
18225;DHT22;9237;48.590;8.854;2023-01-05T04:59:14;9.90;99.90
18225;DHT22;9237;48.590;8.854;2023-01-05T05:01:41;9.90;99.90
18225;DHT22;9237;48.590;8.854;2023-01-05T05:04:08;10.10;99.90
18225;DHT22;9237;48.590;8.854;2023-01-05T05:06:35;10.10;99.90
18225;DHT22;9237;48.590;8.854;2023-01-05T05:09:02;10.00;99.90
18225;DHT22;9237;48.590;8.854;2023-01-05T05:11:29;10.00;99.90
18225;DHT22;9237;48.590;8.854;2023-01-05T05:13:55;10.10;99.90
18225;DHT22;9237;48.590;8.854;2023-01-05T05:16:24;10.20;99.90
18225;DHT22;9237;48.590;8.854;2023-01-05T05:18:50;10.20;99.90
18225;DHT22;9237;48.590;8.854;2023-01-05T05:21:17;10.10;99.90
18225;DHT22;9237;48.590;8.854;2023-01-05T05:23:44;10.00;99.90
18225;DHT22;9237;48.590;8.854;2023-01-05T05:26:11;9.90;99.90
18225;DHT22;9237;48.590;8.854;2023-01-05T05:28:38;9.80;99.90
18225;DHT22;9237;48.590;8.854;2023-01-05T05:31:04;9.80;99.90
18225;DHT22;9237;48.590;8.854;2023-01-05T05:33:33;9.80;99.90
18225;DHT22;9237;48.590;8.854;2023-01-05T05:36:02;9.80;99.90
18225;DHT22;9237;48.590;8.854;2023-01-05T05:38:30;9.80;99.90
18225;DHT22;9237;48.590;8.854;2023-01-05T05:40:56;9.90;99.90
18225;DHT22;9237;48.590;8.854;2023-01-05T05:43:23;9.90;99.90
18225;DHT22;9237;48.590;8.854;2023-01-05T05:45:50;9.90;99.90
18225;DHT22;9237;48.590;8.854;2023-01-05T05:48:17;9.90;99.90
18225;DHT22;9237;48.590;8.854;2023-01-05T05:50:45;10.00;99.90
18225;DHT22;9237;48.590;8.854;2023-01-05T05:53:12;9.90;99.90
18225;DHT22;9237;48.590;8.854;2023-01-05T05:55:39;9.90;99.90
18225;DHT22;9237;48.590;8.854;2023-01-05T05:58:06;10.00;99.90
18225;DHT22;9237;48.590;8.854;2023-01-05T06:00:33;10.00;99.90
18225;DHT22;9237;48.590;8.854;2023-01-05T06:03:00;10.00;99.90
18225;DHT22;9237;48.590;8.854;2023-01-05T06:05:27;10.00;99.90
18225;DHT22;9237;48.590;8.854;2023-01-05T06:07:55;10.00;99.90
18225;DHT22;9237;48.590;8.854;2023-01-05T06:10:22;10.00;99.90
18225;DHT22;9237;48.590;8.854;2023-01-05T06:12:49;10.00;99.90
18225;DHT22;9237;48.590;8.854;2023-01-05T06:15:18;9.90;99.90
18225;DHT22;9237;48.590;8.854;2023-01-05T06:17:45;9.90;99.90
18225;DHT22;9237;48.590;8.854;2023-01-05T06:20:13;9.90;99.90
18225;DHT22;9237;48.590;8.854;2023-01-05T06:22:41;9.90;99.90
18225;DHT22;9237;48.590;8.854;2023-01-05T06:25:09;9.80;99.90
18225;DHT22;9237;48.590;8.854;2023-01-05T06:27:36;9.80;99.90
18225;DHT22;9237;48.590;8.854;2023-01-05T06:30:03;9.70;99.90
18225;DHT22;9237;48.590;8.854;2023-01-05T06:32:30;9.70;99.90
18225;DHT22;9237;48.590;8.854;2023-01-05T06:34:57;9.70;99.90
18225;DHT22;9237;48.590;8.854;2023-01-05T06:37:24;9.70;99.90
18225;DHT22;9237;48.590;8.854;2023-01-05T06:39:51;9.70;99.90
18225;DHT22;9237;48.590;8.854;2023-01-05T06:42:21;9.70;99.90
18225;DHT22;9237;48.590;8.854;2023-01-05T06:44:48;9.70;99.90
18225;DHT22;9237;48.590;8.854;2023-01-05T06:47:15;9.60;99.90
18225;DHT22;9237;48.590;8.854;2023-01-05T06:49:41;9.60;99.90
18225;DHT22;9237;48.590;8.854;2023-01-05T06:52:08;9.60;99.90
18225;DHT22;9237;48.590;8.854;2023-01-05T06:54:35;9.60;99.90
18225;DHT22;9237;48.590;8.854;2023-01-05T06:57:02;9.70;99.90
18225;DHT22;9237;48.590;8.854;2023-01-05T06:59:30;9.70;99.90
18225;DHT22;9237;48.590;8.854;2023-01-05T07:01:57;9.60;99.90
18225;DHT22;9237;48.590;8.854;2023-01-05T07:04:24;9.60;99.90
18225;DHT22;9237;48.590;8.854;2023-01-05T07:06:50;9.60;99.90
18225;DHT22;9237;48.590;8.854;2023-01-05T07:09:17;9.60;99.90
18225;DHT22;9237;48.590;8.854;2023-01-05T07:11:44;9.60;99.90
18225;DHT22;9237;48.590;8.854;2023-01-05T07:14:11;11.20;99.90
18225;DHT22;9237;48.590;8.854;2023-01-05T07:16:39;9.50;99.90
18225;DHT22;9237;48.590;8.854;2023-01-05T07:19:06;9.50;99.90
18225;DHT22;9237;48.590;8.854;2023-01-05T07:21:33;9.60;99.90
18225;DHT22;9237;48.590;8.854;2023-01-05T07:23:59;9.60;99.90
18225;DHT22;9237;48.590;8.854;2023-01-05T07:26:26;9.60;99.90
18225;DHT22;9237;48.590;8.854;2023-01-05T07:28:53;9.60;99.90
18225;DHT22;9237;48.590;8.854;2023-01-05T07:31:20;9.60;99.90
18225;DHT22;9237;48.590;8.854;2023-01-05T07:33:48;9.60;99.90
18225;DHT22;9237;48.590;8.854;2023-01-05T07:36:15;9.60;99.90
18225;DHT22;9237;48.590;8.854;2023-01-05T07:38:42;9.60;99.90
18225;DHT22;9237;48.590;8.854;2023-01-05T07:41:08;9.60;99.90
18225;DHT22;9237;48.590;8.854;2023-01-05T07:43:35;9.60;99.90
18225;DHT22;9237;48.590;8.854;2023-01-05T07:46:03;9.60;99.90
18225;DHT22;9237;48.590;8.854;2023-01-05T07:48:30;9.70;99.90
18225;DHT22;9237;48.590;8.854;2023-01-05T07:51:00;9.70;99.90
18225;DHT22;9237;48.590;8.854;2023-01-05T07:53:31;9.80;99.90
18225;DHT22;9237;48.590;8.854;2023-01-05T07:56:00;9.80;99.90
18225;DHT22;9237;48.590;8.854;2023-01-05T07:58:27;9.80;99.90
18225;DHT22;9237;48.590;8.854;2023-01-05T08:00:54;9.70;99.90
18225;DHT22;9237;48.590;8.854;2023-01-05T08:03:22;9.80;99.90
18225;DHT22;9237;48.590;8.854;2023-01-05T08:05:49;9.80;99.90
18225;DHT22;9237;48.590;8.854;2023-01-05T08:08:17;9.90;99.90
18225;DHT22;9237;48.590;8.854;2023-01-05T08:10:44;9.90;99.90
18225;DHT22;9237;48.590;8.854;2023-01-05T08:13:11;9.90;99.90
18225;DHT22;9237;48.590;8.854;2023-01-05T08:15:56;9.90;99.90
18225;DHT22;9237;48.590;8.854;2023-01-05T08:18:25;9.90;99.90
18225;DHT22;9237;48.590;8.854;2023-01-05T08:20:53;10.00;99.90
18225;DHT22;9237;48.590;8.854;2023-01-05T08:23:21;9.90;99.90
18225;DHT22;9237;48.590;8.854;2023-01-05T08:25:48;9.90;99.90
18225;DHT22;9237;48.590;8.854;2023-01-05T08:28:15;9.90;99.90
18225;DHT22;9237;48.590;8.854;2023-01-05T08:30:42;9.90;99.90
18225;DHT22;9237;48.590;8.854;2023-01-05T08:33:09;9.80;99.90
18225;DHT22;9237;48.590;8.854;2023-01-05T08:35:39;9.80;99.90
18225;DHT22;9237;48.590;8.854;2023-01-05T08:38:06;9.80;99.90
18225;DHT22;9237;48.590;8.854;2023-01-05T08:40:36;9.80;99.90
18225;DHT22;9237;48.590;8.854;2023-01-05T08:43:03;9.80;99.90
18225;DHT22;9237;48.590;8.854;2023-01-05T08:45:31;9.80;99.90
18225;DHT22;9237;48.590;8.854;2023-01-05T08:47:58;9.80;99.90
18225;DHT22;9237;48.590;8.854;2023-01-05T08:50:25;9.90;99.90
18225;DHT22;9237;48.590;8.854;2023-01-05T08:52:52;9.90;99.90
18225;DHT22;9237;48.590;8.854;2023-01-05T08:55:18;9.90;99.90
18225;DHT22;9237;48.590;8.854;2023-01-05T08:57:47;10.00;99.90
18225;DHT22;9237;48.590;8.854;2023-01-05T09:00:14;10.10;99.90
18225;DHT22;9237;48.590;8.854;2023-01-05T09:02:42;10.00;99.90
18225;DHT22;9237;48.590;8.854;2023-01-05T09:05:09;10.10;99.90
18225;DHT22;9237;48.590;8.854;2023-01-05T09:07:36;10.20;99.90
18225;DHT22;9237;48.590;8.854;2023-01-05T09:10:04;10.20;99.90
18225;DHT22;9237;48.590;8.854;2023-01-05T09:12:30;10.30;99.90
18225;DHT22;9237;48.590;8.854;2023-01-05T09:14:59;10.20;99.90
18225;DHT22;9237;48.590;8.854;2023-01-05T09:17:25;10.20;99.90
18225;DHT22;9237;48.590;8.854;2023-01-05T09:19:52;10.10;99.90
18225;DHT22;9237;48.590;8.854;2023-01-05T09:22:20;10.10;99.90
18225;DHT22;9237;48.590;8.854;2023-01-05T09:24:47;10.10;99.90
18225;DHT22;9237;48.590;8.854;2023-01-05T09:27:14;10.10;99.90
18225;DHT22;9237;48.590;8.854;2023-01-05T09:29:41;10.10;99.90
18225;DHT22;9237;48.590;8.854;2023-01-05T09:32:09;10.10;99.90
18225;DHT22;9237;48.590;8.854;2023-01-05T09:34:36;10.20;99.90
18225;DHT22;9237;48.590;8.854;2023-01-05T09:37:03;10.20;99.90
18225;DHT22;9237;48.590;8.854;2023-01-05T09:39:29;10.30;99.90
18225;DHT22;9237;48.590;8.854;2023-01-05T09:41:59;10.30;99.90
18225;DHT22;9237;48.590;8.854;2023-01-05T09:44:29;10.40;99.90
18225;DHT22;9237;48.590;8.854;2023-01-05T09:47:00;10.40;99.90
18225;DHT22;9237;48.590;8.854;2023-01-05T09:49:30;10.50;99.90
18225;DHT22;9237;48.590;8.854;2023-01-05T09:52:00;10.50;99.90
18225;DHT22;9237;48.590;8.854;2023-01-05T09:54:30;10.50;99.90
18225;DHT22;9237;48.590;8.854;2023-01-05T09:56:59;10.50;99.90
18225;DHT22;9237;48.590;8.854;2023-01-05T09:59:29;10.60;99.90
18225;DHT22;9237;48.590;8.854;2023-01-05T10:01:59;10.50;99.90
18225;DHT22;9237;48.590;8.854;2023-01-05T10:04:29;10.50;99.90
18225;DHT22;9237;48.590;8.854;2023-01-05T10:07:00;10.60;99.90
18225;DHT22;9237;48.590;8.854;2023-01-05T10:09:30;10.60;99.90
18225;DHT22;9237;48.590;8.854;2023-01-05T10:12:01;10.60;99.90
18225;DHT22;9237;48.590;8.854;2023-01-05T10:14:51;10.60;99.90
18225;DHT22;9237;48.590;8.854;2023-01-05T10:17:20;10.70;99.90
18225;DHT22;9237;48.590;8.854;2023-01-05T10:19:49;10.80;99.90
18225;DHT22;9237;48.590;8.854;2023-01-05T10:22:25;10.80;99.90
18225;DHT22;9237;48.590;8.854;2023-01-05T10:24:57;10.90;99.90
18225;DHT22;9237;48.590;8.854;2023-01-05T10:27:30;10.90;99.90
18225;DHT22;9237;48.590;8.854;2023-01-05T10:30:04;11.00;99.90
18225;DHT22;9237;48.590;8.854;2023-01-05T10:32:48;10.90;99.90
18225;DHT22;9237;48.590;8.854;2023-01-05T10:35:32;10.90;99.90
18225;DHT22;9237;48.590;8.854;2023-01-05T10:38:08;10.90;99.90
18225;DHT22;9237;48.590;8.854;2023-01-05T10:40:50;11.00;99.90
18225;DHT22;9237;48.590;8.854;2023-01-05T10:43:38;11.00;99.90
18225;DHT22;9237;48.590;8.854;2023-01-05T10:46:09;11.10;99.90
18225;DHT22;9237;48.590;8.854;2023-01-05T10:48:38;11.00;99.90
18225;DHT22;9237;48.590;8.854;2023-01-05T10:51:07;11.00;99.90
18225;DHT22;9237;48.590;8.854;2023-01-05T10:53:37;11.00;99.90
18225;DHT22;9237;48.590;8.854;2023-01-05T10:56:06;10.90;99.90
18225;DHT22;9237;48.590;8.854;2023-01-05T10:58:37;10.90;99.90
18225;DHT22;9237;48.590;8.854;2023-01-05T11:03:48;11.10;99.90
18225;DHT22;9237;48.590;8.854;2023-01-05T11:06:24;11.20;99.90
18225;DHT22;9237;48.590;8.854;2023-01-05T11:08:53;11.20;99.90
18225;DHT22;9237;48.590;8.854;2023-01-05T11:11:22;11.30;99.90
18225;DHT22;9237;48.590;8.854;2023-01-05T11:13:52;11.30;99.90
18225;DHT22;9237;48.590;8.854;2023-01-05T11:16:22;11.40;99.90
18225;DHT22;9237;48.590;8.854;2023-01-05T11:18:52;11.50;99.90
18225;DHT22;9237;48.590;8.854;2023-01-05T11:21:22;11.60;99.90
18225;DHT22;9237;48.590;8.854;2023-01-05T11:23:50;11.50;99.90
18225;DHT22;9237;48.590;8.854;2023-01-05T11:26:32;11.50;99.90
18225;DHT22;9237;48.590;8.854;2023-01-05T11:29:12;11.60;99.90
18225;DHT22;9237;48.590;8.854;2023-01-05T11:31:43;11.60;99.90
18225;DHT22;9237;48.590;8.854;2023-01-05T11:34:25;11.50;99.90
18225;DHT22;9237;48.590;8.854;2023-01-05T11:36:57;11.50;99.90
18225;DHT22;9237;48.590;8.854;2023-01-05T11:39:29;11.50;99.90
18225;DHT22;9237;48.590;8.854;2023-01-05T11:42:17;11.50;99.90
18225;DHT22;9237;48.590;8.854;2023-01-05T11:44:47;11.50;99.90
18225;DHT22;9237;48.590;8.854;2023-01-05T11:47:20;11.40;99.90
18225;DHT22;9237;48.590;8.854;2023-01-05T11:49:48;11.20;99.90
18225;DHT22;9237;48.590;8.854;2023-01-05T11:52:26;11.20;99.90
18225;DHT22;9237;48.590;8.854;2023-01-05T11:54:53;11.20;99.90
18225;DHT22;9237;48.590;8.854;2023-01-05T11:57:20;11.10;99.90
18225;DHT22;9237;48.590;8.854;2023-01-05T11:59:48;11.10;99.90
18225;DHT22;9237;48.590;8.854;2023-01-05T12:02:44;11.10;99.90
18225;DHT22;9237;48.590;8.854;2023-01-05T12:05:34;11.10;99.90
18225;DHT22;9237;48.590;8.854;2023-01-05T12:08:10;11.10;99.90
18225;DHT22;9237;48.590;8.854;2023-01-05T12:10:50;11.00;99.90
18225;DHT22;9237;48.590;8.854;2023-01-05T12:13:44;11.00;99.90
18225;DHT22;9237;48.590;8.854;2023-01-05T12:16:33;11.10;99.90
18225;DHT22;9237;48.590;8.854;2023-01-05T12:19:19;11.30;99.90
18225;DHT22;9237;48.590;8.854;2023-01-05T12:21:59;11.30;99.90
18225;DHT22;9237;48.590;8.854;2023-01-05T12:24:46;11.30;99.90
18225;DHT22;9237;48.590;8.854;2023-01-05T12:27:31;11.30;99.90
18225;DHT22;9237;48.590;8.854;2023-01-05T12:33:14;11.40;99.90
18225;DHT22;9237;48.590;8.854;2023-01-05T12:36:00;11.30;99.90
18225;DHT22;9237;48.590;8.854;2023-01-05T12:38:35;11.20;99.90
18225;DHT22;9237;48.590;8.854;2023-01-05T12:41:19;11.20;99.90
18225;DHT22;9237;48.590;8.854;2023-01-05T12:44:05;11.10;99.90
18225;DHT22;9237;48.590;8.854;2023-01-05T12:46:46;11.00;99.90
18225;DHT22;9237;48.590;8.854;2023-01-05T12:49:17;11.10;99.90
18225;DHT22;9237;48.590;8.854;2023-01-05T12:51:46;11.10;99.90
18225;DHT22;9237;48.590;8.854;2023-01-05T12:54:22;11.20;99.90
18225;DHT22;9237;48.590;8.854;2023-01-05T12:56:58;11.20;99.90
18225;DHT22;9237;48.590;8.854;2023-01-05T12:59:28;11.20;99.90
18225;DHT22;9237;48.590;8.854;2023-01-05T13:02:06;11.20;99.90
18225;DHT22;9237;48.590;8.854;2023-01-05T13:04:48;11.20;99.90
18225;DHT22;9237;48.590;8.854;2023-01-05T13:07:21;11.30;99.90
18225;DHT22;9237;48.590;8.854;2023-01-05T13:09:56;11.30;99.90
18225;DHT22;9237;48.590;8.854;2023-01-05T13:12:25;11.40;99.90
18225;DHT22;9237;48.590;8.854;2023-01-05T13:15:08;11.30;99.90
18225;DHT22;9237;48.590;8.854;2023-01-05T13:17:42;11.30;99.90
18225;DHT22;9237;48.590;8.854;2023-01-05T13:20:32;11.30;99.90
18225;DHT22;9237;48.590;8.854;2023-01-05T13:23:03;11.20;99.90
18225;DHT22;9237;48.590;8.854;2023-01-05T13:25:36;11.20;99.90
18225;DHT22;9237;48.590;8.854;2023-01-05T13:28:16;11.20;99.90
18225;DHT22;9237;48.590;8.854;2023-01-05T13:30:51;11.20;99.90
18225;DHT22;9237;48.590;8.854;2023-01-05T13:33:39;11.20;99.90
18225;DHT22;9237;48.590;8.854;2023-01-05T13:36:19;11.20;99.90
18225;DHT22;9237;48.590;8.854;2023-01-05T13:39:09;11.20;99.90
18225;DHT22;9237;48.590;8.854;2023-01-05T13:42:06;11.10;99.90
18225;DHT22;9237;48.590;8.854;2023-01-05T13:47:57;11.10;99.90
18225;DHT22;9237;48.590;8.854;2023-01-05T13:51:05;11.10;99.90
18225;DHT22;9237;48.590;8.854;2023-01-05T13:53:39;11.00;99.90
18225;DHT22;9237;48.590;8.854;2023-01-05T13:56:12;11.00;99.90
18225;DHT22;9237;48.590;8.854;2023-01-05T13:58:42;11.00;99.90
18225;DHT22;9237;48.590;8.854;2023-01-05T14:01:13;11.00;99.90
18225;DHT22;9237;48.590;8.854;2023-01-05T14:03:48;11.00;99.90
18225;DHT22;9237;48.590;8.854;2023-01-05T14:06:18;11.00;99.90
18225;DHT22;9237;48.590;8.854;2023-01-05T14:08:50;11.00;99.90
18225;DHT22;9237;48.590;8.854;2023-01-05T14:11:20;11.00;99.90
18225;DHT22;9237;48.590;8.854;2023-01-05T14:13:50;11.00;99.90
18225;DHT22;9237;48.590;8.854;2023-01-05T14:16:48;11.00;99.90
18225;DHT22;9237;48.590;8.854;2023-01-05T14:19:23;11.00;99.90
18225;DHT22;9237;48.590;8.854;2023-01-05T14:22:02;11.00;99.90
18225;DHT22;9237;48.590;8.854;2023-01-05T14:24:32;11.00;99.90
18225;DHT22;9237;48.590;8.854;2023-01-05T14:27:03;11.00;99.90
18225;DHT22;9237;48.590;8.854;2023-01-05T14:32:35;11.00;99.90
18225;DHT22;9237;48.590;8.854;2023-01-05T14:35:17;11.00;99.90
18225;DHT22;9237;48.590;8.854;2023-01-05T14:37:52;11.00;99.90
18225;DHT22;9237;48.590;8.854;2023-01-05T14:40:32;11.00;99.90
18225;DHT22;9237;48.590;8.854;2023-01-05T14:43:01;10.90;99.90
18225;DHT22;9237;48.590;8.854;2023-01-05T14:45:30;10.90;99.90
18225;DHT22;9237;48.590;8.854;2023-01-05T14:48:01;10.90;99.90
18225;DHT22;9237;48.590;8.854;2023-01-05T14:50:33;10.80;99.90
18225;DHT22;9237;48.590;8.854;2023-01-05T14:53:03;10.80;99.90
18225;DHT22;9237;48.590;8.854;2023-01-05T14:55:31;10.80;99.90
18225;DHT22;9237;48.590;8.854;2023-01-05T14:58:00;10.70;99.90
18225;DHT22;9237;48.590;8.854;2023-01-05T15:00:39;10.70;99.90
18225;DHT22;9237;48.590;8.854;2023-01-05T15:03:16;10.70;99.90
18225;DHT22;9237;48.590;8.854;2023-01-05T15:05:53;10.70;99.90
18225;DHT22;9237;48.590;8.854;2023-01-05T15:08:36;10.60;99.90
18225;DHT22;9237;48.590;8.854;2023-01-05T15:11:21;10.60;99.90
18225;DHT22;9237;48.590;8.854;2023-01-05T15:14:07;10.60;99.90
18225;DHT22;9237;48.590;8.854;2023-01-05T15:20:15;10.50;99.90
18225;DHT22;9237;48.590;8.854;2023-01-05T15:23:02;10.50;99.90
18225;DHT22;9237;48.590;8.854;2023-01-05T15:25:40;10.50;99.90
18225;DHT22;9237;48.590;8.854;2023-01-05T15:28:41;10.50;99.90
18225;DHT22;9237;48.590;8.854;2023-01-05T15:31:18;10.40;99.90
18225;DHT22;9237;48.590;8.854;2023-01-05T15:33:51;10.40;99.90
18225;DHT22;9237;48.590;8.854;2023-01-05T15:36:25;10.40;99.90
18225;DHT22;9237;48.590;8.854;2023-01-05T15:38:54;10.40;99.90
18225;DHT22;9237;48.590;8.854;2023-01-05T15:41:22;10.40;99.90
18225;DHT22;9237;48.590;8.854;2023-01-05T15:43:50;10.40;99.90
18225;DHT22;9237;48.590;8.854;2023-01-05T15:46:19;10.30;99.90
18225;DHT22;9237;48.590;8.854;2023-01-05T15:48:49;10.30;99.90
18225;DHT22;9237;48.590;8.854;2023-01-05T15:51:24;10.30;99.90
18225;DHT22;9237;48.590;8.854;2023-01-05T15:53:55;10.30;99.90
18225;DHT22;9237;48.590;8.854;2023-01-05T15:56:28;10.30;99.90
18225;DHT22;9237;48.590;8.854;2023-01-05T15:58:56;10.30;99.90
18225;DHT22;9237;48.590;8.854;2023-01-05T16:01:23;10.30;99.90
18225;DHT22;9237;48.590;8.854;2023-01-05T16:04:04;10.30;99.90
18225;DHT22;9237;48.590;8.854;2023-01-05T16:06:31;10.30;99.90
18225;DHT22;9237;48.590;8.854;2023-01-05T16:09:09;10.30;99.90
18225;DHT22;9237;48.590;8.854;2023-01-05T16:11:39;10.30;99.90
18225;DHT22;9237;48.590;8.854;2023-01-05T16:14:09;10.20;99.90
18225;DHT22;9237;48.590;8.854;2023-01-05T16:16:39;10.20;99.90
18225;DHT22;9237;48.590;8.854;2023-01-05T16:19:11;10.20;99.90
18225;DHT22;9237;48.590;8.854;2023-01-05T16:21:42;10.20;99.90
18225;DHT22;9237;48.590;8.854;2023-01-05T16:24:17;10.20;99.90
18225;DHT22;9237;48.590;8.854;2023-01-05T16:26:47;10.20;99.90
18225;DHT22;9237;48.590;8.854;2023-01-05T16:29:27;10.20;99.90
18225;DHT22;9237;48.590;8.854;2023-01-05T16:31:56;10.20;99.90
18225;DHT22;9237;48.590;8.854;2023-01-05T16:34:23;10.20;99.90
18225;DHT22;9237;48.590;8.854;2023-01-05T16:37:01;10.10;99.90
18225;DHT22;9237;48.590;8.854;2023-01-05T16:39:35;10.20;99.90
18225;DHT22;9237;48.590;8.854;2023-01-05T16:42:13;10.10;99.90